sensor_id;sensor_type;location;lat;lon;timestamp;temperature;humidity
4697;DHT22;2362;50.780;0.292;2023-04-29T00:01:57;10.00;99.90
4697;DHT22;2362;50.780;0.292;2023-04-29T00:04:27;10.00;99.90
4697;DHT22;2362;50.780;0.292;2023-04-29T00:06:52;10.00;99.90
4697;DHT22;2362;50.780;0.292;2023-04-29T00:09:18;9.90;99.90
4697;DHT22;2362;50.780;0.292;2023-04-29T00:11:44;9.90;99.90
4697;DHT22;2362;50.780;0.292;2023-04-29T00:14:11;9.80;99.90
4697;DHT22;2362;50.780;0.292;2023-04-29T00:16:37;9.80;99.90
4697;DHT22;2362;50.780;0.292;2023-04-29T00:19:03;9.70;99.90
4697;DHT22;2362;50.780;0.292;2023-04-29T00:21:28;9.70;99.90
4697;DHT22;2362;50.780;0.292;2023-04-29T00:23:55;9.60;99.90
4697;DHT22;2362;50.780;0.292;2023-04-29T00:26:20;9.60;99.90
4697;DHT22;2362;50.780;0.292;2023-04-29T00:28:46;9.50;99.90
4697;DHT22;2362;50.780;0.292;2023-04-29T00:31:12;9.40;99.90
4697;DHT22;2362;50.780;0.292;2023-04-29T00:33:38;9.40;99.90
4697;DHT22;2362;50.780;0.292;2023-04-29T00:36:05;9.40;99.90
4697;DHT22;2362;50.780;0.292;2023-04-29T00:38:31;9.30;99.90
4697;DHT22;2362;50.780;0.292;2023-04-29T00:40:57;9.30;99.90
4697;DHT22;2362;50.780;0.292;2023-04-29T00:43:22;9.30;99.90
4697;DHT22;2362;50.780;0.292;2023-04-29T00:45:56;9.30;99.90
4697;DHT22;2362;50.780;0.292;2023-04-29T00:48:47;9.30;99.90
4697;DHT22;2362;50.780;0.292;2023-04-29T00:51:13;9.20;99.90
4697;DHT22;2362;50.780;0.292;2023-04-29T00:53:39;9.20;99.90
4697;DHT22;2362;50.780;0.292;2023-04-29T00:56:05;9.20;99.90
4697;DHT22;2362;50.780;0.292;2023-04-29T00:58:32;9.10;99.90
4697;DHT22;2362;50.780;0.292;2023-04-29T01:01:01;9.00;99.90
4697;DHT22;2362;50.780;0.292;2023-04-29T01:03:30;8.90;99.90
4697;DHT22;2362;50.780;0.292;2023-04-29T01:06:15;8.90;99.90
4697;DHT22;2362;50.780;0.292;2023-04-29T01:14:19;8.90;99.90
4697;DHT22;2362;50.780;0.292;2023-04-29T01:16:51;8.90;99.90
4697;DHT22;2362;50.780;0.292;2023-04-29T01:22:11;8.80;99.90
4697;DHT22;2362;50.780;0.292;2023-04-29T01:24:39;8.90;99.90
4697;DHT22;2362;50.780;0.292;2023-04-29T01:27:32;8.90;99.90
4697;DHT22;2362;50.780;0.292;2023-04-29T01:30:25;8.90;99.90
4697;DHT22;2362;50.780;0.292;2023-04-29T01:32:55;8.90;99.90
4697;DHT22;2362;50.780;0.292;2023-04-29T01:43:47;8.80;99.90
4697;DHT22;2362;50.780;0.292;2023-04-29T01:46:16;8.80;99.90
4697;DHT22;2362;50.780;0.292;2023-04-29T01:48:43;8.80;99.90
4697;DHT22;2362;50.780;0.292;2023-04-29T01:51:09;8.70;99.90
4697;DHT22;2362;50.780;0.292;2023-04-29T01:53:36;8.60;99.90
4697;DHT22;2362;50.780;0.292;2023-04-29T01:56:01;8.60;99.90
4697;DHT22;2362;50.780;0.292;2023-04-29T01:58:27;8.60;99.90
4697;DHT22;2362;50.780;0.292;2023-04-29T02:00:53;8.60;99.90
4697;DHT22;2362;50.780;0.292;2023-04-29T02:03:20;8.50;99.90
4697;DHT22;2362;50.780;0.292;2023-04-29T02:05:46;8.50;99.90
4697;DHT22;2362;50.780;0.292;2023-04-29T02:08:12;8.50;99.90
4697;DHT22;2362;50.780;0.292;2023-04-29T02:10:37;8.40;99.90
4697;DHT22;2362;50.780;0.292;2023-04-29T02:13:03;8.40;99.90
4697;DHT22;2362;50.780;0.292;2023-04-29T02:15:29;8.30;99.90
4697;DHT22;2362;50.780;0.292;2023-04-29T02:17:54;8.30;99.90
4697;DHT22;2362;50.780;0.292;2023-04-29T02:20:20;8.20;99.90
4697;DHT22;2362;50.780;0.292;2023-04-29T02:22:48;8.10;99.90
4697;DHT22;2362;50.780;0.292;2023-04-29T02:25:14;8.10;99.90
4697;DHT22;2362;50.780;0.292;2023-04-29T02:27:39;8.10;99.90
4697;DHT22;2362;50.780;0.292;2023-04-29T02:30:05;8.00;99.90
4697;DHT22;2362;50.780;0.292;2023-04-29T02:32:31;8.00;99.90
4697;DHT22;2362;50.780;0.292;2023-04-29T02:34:57;8.00;99.90
4697;DHT22;2362;50.780;0.292;2023-04-29T02:37:23;8.00;99.90
4697;DHT22;2362;50.780;0.292;2023-04-29T02:39:48;8.00;99.90
4697;DHT22;2362;50.780;0.292;2023-04-29T02:42:14;7.90;99.90
4697;DHT22;2362;50.780;0.292;2023-04-29T02:44:40;7.90;99.90
4697;DHT22;2362;50.780;0.292;2023-04-29T02:47:07;7.90;99.90
4697;DHT22;2362;50.780;0.292;2023-04-29T02:49:32;7.90;99.90
4697;DHT22;2362;50.780;0.292;2023-04-29T02:52:00;7.90;99.90
4697;DHT22;2362;50.780;0.292;2023-04-29T02:54:26;7.90;99.90
4697;DHT22;2362;50.780;0.292;2023-04-29T02:56:51;7.90;99.90
4697;DHT22;2362;50.780;0.292;2023-04-29T02:59:17;7.90;99.90
4697;DHT22;2362;50.780;0.292;2023-04-29T03:01:43;7.90;99.90
4697;DHT22;2362;50.780;0.292;2023-04-29T03:04:09;7.90;99.90
4697;DHT22;2362;50.780;0.292;2023-04-29T03:06:34;7.90;99.90
4697;DHT22;2362;50.780;0.292;2023-04-29T03:09:00;7.80;99.90
4697;DHT22;2362;50.780;0.292;2023-04-29T03:11:26;7.90;99.90
4697;DHT22;2362;50.780;0.292;2023-04-29T03:13:52;7.80;99.90
4697;DHT22;2362;50.780;0.292;2023-04-29T03:16:18;7.80;99.90
4697;DHT22;2362;50.780;0.292;2023-04-29T03:18:44;7.70;99.90
4697;DHT22;2362;50.780;0.292;2023-04-29T03:21:09;7.70;99.90
4697;DHT22;2362;50.780;0.292;2023-04-29T03:23:35;7.60;99.90
4697;DHT22;2362;50.780;0.292;2023-04-29T03:26:03;7.60;99.90
4697;DHT22;2362;50.780;0.292;2023-04-29T03:28:29;7.60;99.90
4697;DHT22;2362;50.780;0.292;2023-04-29T03:30:55;7.50;99.90
4697;DHT22;2362;50.780;0.292;2023-04-29T03:33:21;7.50;99.90
4697;DHT22;2362;50.780;0.292;2023-04-29T03:35:47;7.50;99.90
4697;DHT22;2362;50.780;0.292;2023-04-29T03:38:13;7.40;99.90
4697;DHT22;2362;50.780;0.292;2023-04-29T03:40:39;7.40;99.90
4697;DHT22;2362;50.780;0.292;2023-04-29T03:43:04;7.40;99.90
4697;DHT22;2362;50.780;0.292;2023-04-29T03:45:32;7.30;99.90
4697;DHT22;2362;50.780;0.292;2023-04-29T03:47:58;7.30;99.90
4697;DHT22;2362;50.780;0.292;2023-04-29T03:50:23;7.30;99.90
4697;DHT22;2362;50.780;0.292;2023-04-29T03:52:50;7.30;99.90
4697;DHT22;2362;50.780;0.292;2023-04-29T03:55:16;7.30;99.90
4697;DHT22;2362;50.780;0.292;2023-04-29T03:57:42;7.30;99.90
4697;DHT22;2362;50.780;0.292;2023-04-29T04:00:08;7.30;99.90
4697;DHT22;2362;50.780;0.292;2023-04-29T04:02:34;7.30;99.90
4697;DHT22;2362;50.780;0.292;2023-04-29T04:05:00;7.30;99.90
4697;DHT22;2362;50.780;0.292;2023-04-29T04:07:26;7.20;99.90
4697;DHT22;2362;50.780;0.292;2023-04-29T04:09:51;7.30;99.90
4697;DHT22;2362;50.780;0.292;2023-04-29T04:12:17;7.30;99.90
4697;DHT22;2362;50.780;0.292;2023-04-29T04:14:42;7.20;99.90
4697;DHT22;2362;50.780;0.292;2023-04-29T04:17:08;7.10;99.90
4697;DHT22;2362;50.780;0.292;2023-04-29T04:19:34;7.10;99.90
4697;DHT22;2362;50.780;0.292;2023-04-29T04:22:02;7.10;99.90
4697;DHT22;2362;50.780;0.292;2023-04-29T04:24:28;7.10;99.90
4697;DHT22;2362;50.780;0.292;2023-04-29T04:27:19;7.10;99.90
4697;DHT22;2362;50.780;0.292;2023-04-29T04:30:10;7.00;99.90
4697;DHT22;2362;50.780;0.292;2023-04-29T04:32:37;7.00;99.90
4697;DHT22;2362;50.780;0.292;2023-04-29T04:35:04;7.00;99.90
4697;DHT22;2362;50.780;0.292;2023-04-29T04:37:31;7.00;99.90
4697;DHT22;2362;50.780;0.292;2023-04-29T04:39:57;7.00;99.90
4697;DHT22;2362;50.780;0.292;2023-04-29T04:42:22;7.00;99.90
4697;DHT22;2362;50.780;0.292;2023-04-29T04:44:48;7.00;99.90
4697;DHT22;2362;50.780;0.292;2023-04-29T04:47:14;7.00;99.90
4697;DHT22;2362;50.780;0.292;2023-04-29T04:49:39;7.10;99.90
4697;DHT22;2362;50.780;0.292;2023-04-29T04:52:05;7.10;99.90
4697;DHT22;2362;50.780;0.292;2023-04-29T04:54:31;7.10;99.90
4697;DHT22;2362;50.780;0.292;2023-04-29T04:56:57;7.20;99.90
4697;DHT22;2362;50.780;0.292;2023-04-29T04:59:23;7.20;99.90
4697;DHT22;2362;50.780;0.292;2023-04-29T05:01:48;7.30;99.90
4697;DHT22;2362;50.780;0.292;2023-04-29T05:04:14;7.40;99.90
4697;DHT22;2362;50.780;0.292;2023-04-29T05:06:40;7.50;99.90
4697;DHT22;2362;50.780;0.292;2023-04-29T05:09:05;7.60;99.90
4697;DHT22;2362;50.780;0.292;2023-04-29T05:11:31;7.70;99.90
4697;DHT22;2362;50.780;0.292;2023-04-29T05:13:57;7.80;99.90
4697;DHT22;2362;50.780;0.292;2023-04-29T05:16:22;7.90;99.90
4697;DHT22;2362;50.780;0.292;2023-04-29T05:18:48;7.90;99.90
4697;DHT22;2362;50.780;0.292;2023-04-29T05:21:14;8.00;99.90
4697;DHT22;2362;50.780;0.292;2023-04-29T05:23:39;8.10;99.90
4697;DHT22;2362;50.780;0.292;2023-04-29T05:26:05;8.20;99.90
4697;DHT22;2362;50.780;0.292;2023-04-29T05:28:31;8.30;99.90
4697;DHT22;2362;50.780;0.292;2023-04-29T05:30:56;8.30;99.90
4697;DHT22;2362;50.780;0.292;2023-04-29T05:33:22;8.40;99.90
4697;DHT22;2362;50.780;0.292;2023-04-29T05:36:13;8.50;99.90
4697;DHT22;2362;50.780;0.292;2023-04-29T05:39:04;8.50;99.90
4697;DHT22;2362;50.780;0.292;2023-04-29T05:41:30;8.60;99.90
4697;DHT22;2362;50.780;0.292;2023-04-29T05:43:55;8.60;99.90
4697;DHT22;2362;50.780;0.292;2023-04-29T05:46:21;8.60;99.90
4697;DHT22;2362;50.780;0.292;2023-04-29T05:48:47;8.60;99.90
4697;DHT22;2362;50.780;0.292;2023-04-29T05:51:13;8.60;99.90
4697;DHT22;2362;50.780;0.292;2023-04-29T05:53:38;8.70;99.90
4697;DHT22;2362;50.780;0.292;2023-04-29T05:56:05;8.60;99.90
4697;DHT22;2362;50.780;0.292;2023-04-29T05:58:33;8.70;99.90
4697;DHT22;2362;50.780;0.292;2023-04-29T06:00:59;8.80;99.90
4697;DHT22;2362;50.780;0.292;2023-04-29T06:03:26;8.80;99.90
4697;DHT22;2362;50.780;0.292;2023-04-29T06:05:52;8.70;99.90
4697;DHT22;2362;50.780;0.292;2023-04-29T06:08:21;8.80;99.90
4697;DHT22;2362;50.780;0.292;2023-04-29T06:10:46;8.80;99.90
4697;DHT22;2362;50.780;0.292;2023-04-29T06:13:12;8.90;99.90
4697;DHT22;2362;50.780;0.292;2023-04-29T06:15:38;8.90;99.90
4697;DHT22;2362;50.780;0.292;2023-04-29T06:18:03;9.00;99.90
4697;DHT22;2362;50.780;0.292;2023-04-29T06:20:29;9.00;99.90
4697;DHT22;2362;50.780;0.292;2023-04-29T06:22:55;9.10;99.90
4697;DHT22;2362;50.780;0.292;2023-04-29T06:25:20;9.10;99.90
4697;DHT22;2362;50.780;0.292;2023-04-29T06:27:46;9.20;99.90
4697;DHT22;2362;50.780;0.292;2023-04-29T06:30:13;9.20;99.90
4697;DHT22;2362;50.780;0.292;2023-04-29T06:33:04;9.30;99.90
4697;DHT22;2362;50.780;0.292;2023-04-29T06:35:30;9.30;99.90
4697;DHT22;2362;50.780;0.292;2023-04-29T06:37:56;9.40;99.90
4697;DHT22;2362;50.780;0.292;2023-04-29T06:40:21;9.40;99.90
4697;DHT22;2362;50.780;0.292;2023-04-29T06:42:47;9.60;99.90
4697;DHT22;2362;50.780;0.292;2023-04-29T06:45:13;9.50;99.90
4697;DHT22;2362;50.780;0.292;2023-04-29T06:47:38;9.50;99.90
4697;DHT22;2362;50.780;0.292;2023-04-29T06:50:05;9.60;99.90
4697;DHT22;2362;50.780;0.292;2023-04-29T06:52:56;9.60;99.90
4697;DHT22;2362;50.780;0.292;2023-04-29T06:55:22;9.70;99.90
4697;DHT22;2362;50.780;0.292;2023-04-29T06:57:47;9.80;99.90
4697;DHT22;2362;50.780;0.292;2023-04-29T07:00:13;9.80;99.90
4697;DHT22;2362;50.780;0.292;2023-04-29T07:02:40;9.90;99.90
4697;DHT22;2362;50.780;0.292;2023-04-29T07:05:06;9.90;99.90
4697;DHT22;2362;50.780;0.292;2023-04-29T07:07:33;9.80;99.90
4697;DHT22;2362;50.780;0.292;2023-04-29T07:09:59;9.90;99.90
4697;DHT22;2362;50.780;0.292;2023-04-29T07:12:25;9.90;99.90
4697;DHT22;2362;50.780;0.292;2023-04-29T07:14:51;10.00;99.90
4697;DHT22;2362;50.780;0.292;2023-04-29T07:17:17;10.00;99.90
4697;DHT22;2362;50.780;0.292;2023-04-29T07:19:43;10.20;99.90
4697;DHT22;2362;50.780;0.292;2023-04-29T07:22:08;10.20;99.90
4697;DHT22;2362;50.780;0.292;2023-04-29T07:24:34;10.40;99.90
4697;DHT22;2362;50.780;0.292;2023-04-29T07:27:00;10.40;99.90
4697;DHT22;2362;50.780;0.292;2023-04-29T07:29:25;10.30;99.90
4697;DHT22;2362;50.780;0.292;2023-04-29T07:31:51;10.40;99.90
4697;DHT22;2362;50.780;0.292;2023-04-29T07:34:17;10.40;99.90
4697;DHT22;2362;50.780;0.292;2023-04-29T07:36:43;10.40;99.90
4697;DHT22;2362;50.780;0.292;2023-04-29T07:39:08;10.50;99.90
4697;DHT22;2362;50.780;0.292;2023-04-29T07:41:36;10.60;99.90
4697;DHT22;2362;50.780;0.292;2023-04-29T07:44:02;10.70;99.90
4697;DHT22;2362;50.780;0.292;2023-04-29T07:46:29;10.70;99.90
4697;DHT22;2362;50.780;0.292;2023-04-29T07:48:55;10.90;99.90
4697;DHT22;2362;50.780;0.292;2023-04-29T07:51:22;10.90;99.90
4697;DHT22;2362;50.780;0.292;2023-04-29T07:53:48;10.90;99.90
4697;DHT22;2362;50.780;0.292;2023-04-29T07:56:14;10.90;99.90
4697;DHT22;2362;50.780;0.292;2023-04-29T07:58:40;10.90;99.90
4697;DHT22;2362;50.780;0.292;2023-04-29T08:01:07;10.90;99.90
4697;DHT22;2362;50.780;0.292;2023-04-29T08:03:33;11.00;99.90
4697;DHT22;2362;50.780;0.292;2023-04-29T08:06:05;11.00;99.90
4697;DHT22;2362;50.780;0.292;2023-04-29T08:08:31;11.10;99.90
4697;DHT22;2362;50.780;0.292;2023-04-29T08:10:58;11.00;99.90
4697;DHT22;2362;50.780;0.292;2023-04-29T08:13:24;11.10;99.90
4697;DHT22;2362;50.780;0.292;2023-04-29T08:15:50;11.10;99.90
4697;DHT22;2362;50.780;0.292;2023-04-29T08:18:16;11.10;99.90
4697;DHT22;2362;50.780;0.292;2023-04-29T08:20:42;11.20;99.90
4697;DHT22;2362;50.780;0.292;2023-04-29T08:23:08;11.30;99.90
4697;DHT22;2362;50.780;0.292;2023-04-29T08:25:33;11.30;99.90
4697;DHT22;2362;50.780;0.292;2023-04-29T08:27:59;11.40;99.90
4697;DHT22;2362;50.780;0.292;2023-04-29T08:30:25;11.50;99.90
4697;DHT22;2362;50.780;0.292;2023-04-29T08:32:50;11.70;99.90
4697;DHT22;2362;50.780;0.292;2023-04-29T08:35:16;11.90;99.90
4697;DHT22;2362;50.780;0.292;2023-04-29T08:37:42;12.00;99.90
4697;DHT22;2362;50.780;0.292;2023-04-29T08:40:08;11.80;99.90
4697;DHT22;2362;50.780;0.292;2023-04-29T08:42:36;12.20;99.90
4697;DHT22;2362;50.780;0.292;2023-04-29T08:45:02;12.30;99.90
4697;DHT22;2362;50.780;0.292;2023-04-29T08:47:29;12.10;99.90
4697;DHT22;2362;50.780;0.292;2023-04-29T08:49:57;12.00;99.90
4697;DHT22;2362;50.780;0.292;2023-04-29T08:52:25;12.10;99.90
4697;DHT22;2362;50.780;0.292;2023-04-29T08:54:51;12.10;99.90
4697;DHT22;2362;50.780;0.292;2023-04-29T08:57:18;12.20;99.90
4697;DHT22;2362;50.780;0.292;2023-04-29T08:59:44;12.20;99.90
4697;DHT22;2362;50.780;0.292;2023-04-29T09:02:14;12.20;99.90
4697;DHT22;2362;50.780;0.292;2023-04-29T09:04:46;12.30;99.90
4697;DHT22;2362;50.780;0.292;2023-04-29T09:07:12;12.10;99.90
4697;DHT22;2362;50.780;0.292;2023-04-29T09:09:41;12.30;99.90
4697;DHT22;2362;50.780;0.292;2023-04-29T09:12:07;12.50;99.90
4697;DHT22;2362;50.780;0.292;2023-04-29T09:14:34;12.70;99.90
4697;DHT22;2362;50.780;0.292;2023-04-29T09:17:00;12.60;99.90
4697;DHT22;2362;50.780;0.292;2023-04-29T09:21:56;12.60;99.90
4697;DHT22;2362;50.780;0.292;2023-04-29T09:24:27;12.70;99.90
4697;DHT22;2362;50.780;0.292;2023-04-29T09:26:53;12.80;99.90
4697;DHT22;2362;50.780;0.292;2023-04-29T09:29:19;13.00;99.90
4697;DHT22;2362;50.780;0.292;2023-04-29T09:31:46;12.90;99.90
4697;DHT22;2362;50.780;0.292;2023-04-29T09:34:12;12.90;99.90
4697;DHT22;2362;50.780;0.292;2023-04-29T09:36:45;12.80;99.90
4697;DHT22;2362;50.780;0.292;2023-04-29T09:39:18;12.90;99.90
4697;DHT22;2362;50.780;0.292;2023-04-29T09:44:21;13.40;99.90
4697;DHT22;2362;50.780;0.292;2023-04-29T09:46:58;13.60;99.90
4697;DHT22;2362;50.780;0.292;2023-04-29T09:49:26;13.70;99.90
4697;DHT22;2362;50.780;0.292;2023-04-29T09:51:57;13.30;99.90
4697;DHT22;2362;50.780;0.292;2023-04-29T09:54:24;13.30;99.90
4697;DHT22;2362;50.780;0.292;2023-04-29T09:56:52;13.20;99.90
4697;DHT22;2362;50.780;0.292;2023-04-29T09:59:20;13.20;99.90
4697;DHT22;2362;50.780;0.292;2023-04-29T10:01:54;13.00;99.90
4697;DHT22;2362;50.780;0.292;2023-04-29T10:04:25;13.00;99.90
4697;DHT22;2362;50.780;0.292;2023-04-29T10:06:53;13.20;99.90
4697;DHT22;2362;50.780;0.292;2023-04-29T10:09:21;13.40;99.90
4697;DHT22;2362;50.780;0.292;2023-04-29T10:11:49;13.30;99.90
4697;DHT22;2362;50.780;0.292;2023-04-29T10:14:20;13.40;99.90
4697;DHT22;2362;50.780;0.292;2023-04-29T10:16:48;13.40;99.90
4697;DHT22;2362;50.780;0.292;2023-04-29T10:21:50;13.40;99.90
4697;DHT22;2362;50.780;0.292;2023-04-29T10:24:17;13.70;99.90
4697;DHT22;2362;50.780;0.292;2023-04-29T10:26:46;13.70;99.90
4697;DHT22;2362;50.780;0.292;2023-04-29T10:29:13;13.90;99.90
4697;DHT22;2362;50.780;0.292;2023-04-29T10:31:40;13.90;99.90
4697;DHT22;2362;50.780;0.292;2023-04-29T10:34:07;13.70;99.90
4697;DHT22;2362;50.780;0.292;2023-04-29T10:36:34;14.00;99.90
4697;DHT22;2362;50.780;0.292;2023-04-29T10:39:02;13.70;99.90
4697;DHT22;2362;50.780;0.292;2023-04-29T10:41:36;13.40;99.90
4697;DHT22;2362;50.780;0.292;2023-04-29T10:44:06;13.60;99.90
4697;DHT22;2362;50.780;0.292;2023-04-29T10:46:32;13.80;99.90
4697;DHT22;2362;50.780;0.292;2023-04-29T10:49:02;14.00;99.90
4697;DHT22;2362;50.780;0.292;2023-04-29T10:51:32;14.00;99.90
4697;DHT22;2362;50.780;0.292;2023-04-29T10:54:27;13.90;99.90
4697;DHT22;2362;50.780;0.292;2023-04-29T10:56:53;14.00;99.90
4697;DHT22;2362;50.780;0.292;2023-04-29T11:01:58;14.10;99.90
4697;DHT22;2362;50.780;0.292;2023-04-29T11:04:23;13.90;99.90
4697;DHT22;2362;50.780;0.292;2023-04-29T11:06:57;13.60;99.90
4697;DHT22;2362;50.780;0.292;2023-04-29T11:09:29;13.20;99.90
4697;DHT22;2362;50.780;0.292;2023-04-29T11:11:59;13.30;99.90
4697;DHT22;2362;50.780;0.292;2023-04-29T11:14:40;13.30;99.90
4697;DHT22;2362;50.780;0.292;2023-04-29T11:17:14;13.40;99.90
4697;DHT22;2362;50.780;0.292;2023-04-29T11:19:42;13.30;99.90
4697;DHT22;2362;50.780;0.292;2023-04-29T11:22:31;13.10;99.90
4697;DHT22;2362;50.780;0.292;2023-04-29T11:25:07;13.00;99.90
4697;DHT22;2362;50.780;0.292;2023-04-29T11:27:59;13.10;99.90
4697;DHT22;2362;50.780;0.292;2023-04-29T11:30:28;13.10;99.90
4697;DHT22;2362;50.780;0.292;2023-04-29T11:32:58;13.20;99.90
4697;DHT22;2362;50.780;0.292;2023-04-29T11:35:23;12.90;99.90
4697;DHT22;2362;50.780;0.292;2023-04-29T11:37:49;12.60;99.90
4697;DHT22;2362;50.780;0.292;2023-04-29T11:40:15;12.70;99.90
4697;DHT22;2362;50.780;0.292;2023-04-29T11:42:46;12.90;99.90
4697;DHT22;2362;50.780;0.292;2023-04-29T11:45:12;13.00;99.90
4697;DHT22;2362;50.780;0.292;2023-04-29T11:47:42;12.90;99.90
4697;DHT22;2362;50.780;0.292;2023-04-29T11:50:09;12.90;99.90
4697;DHT22;2362;50.780;0.292;2023-04-29T11:52:36;13.00;99.90
4697;DHT22;2362;50.780;0.292;2023-04-29T11:55:07;12.90;99.90
4697;DHT22;2362;50.780;0.292;2023-04-29T11:57:34;12.70;99.90
4697;DHT22;2362;50.780;0.292;2023-04-29T12:00:00;12.70;99.90
4697;DHT22;2362;50.780;0.292;2023-04-29T12:02:33;12.80;99.90
4697;DHT22;2362;50.780;0.292;2023-04-29T12:05:04;13.00;99.90
4697;DHT22;2362;50.780;0.292;2023-04-29T12:07:30;12.90;99.90
4697;DHT22;2362;50.780;0.292;2023-04-29T12:09:56;12.60;99.90
4697;DHT22;2362;50.780;0.292;2023-04-29T12:12:22;12.40;99.90
4697;DHT22;2362;50.780;0.292;2023-04-29T12:14:49;12.60;99.90
4697;DHT22;2362;50.780;0.292;2023-04-29T12:17:15;12.60;99.90
4697;DHT22;2362;50.780;0.292;2023-04-29T12:19:42;12.90;99.90
4697;DHT22;2362;50.780;0.292;2023-04-29T12:22:08;13.10;99.90
4697;DHT22;2362;50.780;0.292;2023-04-29T12:24:38;12.90;99.90
4697;DHT22;2362;50.780;0.292;2023-04-29T12:27:07;12.80;99.90
4697;DHT22;2362;50.780;0.292;2023-04-29T12:29:35;12.80;99.90
4697;DHT22;2362;50.780;0.292;2023-04-29T12:32:00;12.70;99.90
4697;DHT22;2362;50.780;0.292;2023-04-29T12:34:30;12.80;99.90
4697;DHT22;2362;50.780;0.292;2023-04-29T12:37:00;12.80;99.90
4697;DHT22;2362;50.780;0.292;2023-04-29T12:39:27;13.10;99.90
4697;DHT22;2362;50.780;0.292;2023-04-29T12:41:59;13.30;99.90
4697;DHT22;2362;50.780;0.292;2023-04-29T12:44:33;12.90;99.90
4697;DHT22;2362;50.780;0.292;2023-04-29T12:47:08;12.90;99.90
4697;DHT22;2362;50.780;0.292;2023-04-29T12:49:35;12.50;99.90
4697;DHT22;2362;50.780;0.292;2023-04-29T12:52:01;12.40;99.90
4697;DHT22;2362;50.780;0.292;2023-04-29T12:54:27;12.60;99.90
4697;DHT22;2362;50.780;0.292;2023-04-29T12:56:53;12.90;99.90
4697;DHT22;2362;50.780;0.292;2023-04-29T12:59:20;12.90;99.90
4697;DHT22;2362;50.780;0.292;2023-04-29T13:01:45;12.90;99.90
4697;DHT22;2362;50.780;0.292;2023-04-29T13:04:13;12.90;99.90
4697;DHT22;2362;50.780;0.292;2023-04-29T13:06:38;12.90;99.90
4697;DHT22;2362;50.780;0.292;2023-04-29T13:09:07;12.90;99.90
4697;DHT22;2362;50.780;0.292;2023-04-29T13:11:36;12.80;99.90
4697;DHT22;2362;50.780;0.292;2023-04-29T13:14:03;12.70;99.90
4697;DHT22;2362;50.780;0.292;2023-04-29T13:16:29;12.60;99.90
4697;DHT22;2362;50.780;0.292;2023-04-29T13:18:54;12.60;99.90
4697;DHT22;2362;50.780;0.292;2023-04-29T13:21:21;12.60;99.90
4697;DHT22;2362;50.780;0.292;2023-04-29T13:23:47;12.60;99.90
4697;DHT22;2362;50.780;0.292;2023-04-29T13:26:13;12.40;99.90
4697;DHT22;2362;50.780;0.292;2023-04-29T13:28:39;12.50;99.90
4697;DHT22;2362;50.780;0.292;2023-04-29T13:31:05;12.50;99.90
4697;DHT22;2362;50.780;0.292;2023-04-29T13:33:32;12.60;99.90
4697;DHT22;2362;50.780;0.292;2023-04-29T13:35:57;12.40;99.90
4697;DHT22;2362;50.780;0.292;2023-04-29T13:38:23;12.50;99.90
4697;DHT22;2362;50.780;0.292;2023-04-29T13:40:48;12.70;99.90
4697;DHT22;2362;50.780;0.292;2023-04-29T13:43:14;12.80;99.90
4697;DHT22;2362;50.780;0.292;2023-04-29T13:45:40;12.60;99.90
4697;DHT22;2362;50.780;0.292;2023-04-29T13:48:06;12.50;99.90
4697;DHT22;2362;50.780;0.292;2023-04-29T13:50:32;12.60;99.90
4697;DHT22;2362;50.780;0.292;2023-04-29T13:52:58;12.70;99.90
4697;DHT22;2362;50.780;0.292;2023-04-29T13:55:23;12.70;99.90
4697;DHT22;2362;50.780;0.292;2023-04-29T13:57:49;12.60;99.90
4697;DHT22;2362;50.780;0.292;2023-04-29T14:00:16;12.50;99.90
4697;DHT22;2362;50.780;0.292;2023-04-29T14:02:42;12.30;99.90
4697;DHT22;2362;50.780;0.292;2023-04-29T14:05:08;12.40;99.90
4697;DHT22;2362;50.780;0.292;2023-04-29T14:07:35;12.40;99.90
4697;DHT22;2362;50.780;0.292;2023-04-29T14:10:00;12.40;99.90
4697;DHT22;2362;50.780;0.292;2023-04-29T14:12:26;12.50;99.90
4697;DHT22;2362;50.780;0.292;2023-04-29T14:14:52;12.40;99.90
4697;DHT22;2362;50.780;0.292;2023-04-29T14:17:18;12.40;99.90
4697;DHT22;2362;50.780;0.292;2023-04-29T14:19:43;12.20;99.90
4697;DHT22;2362;50.780;0.292;2023-04-29T14:22:09;12.20;99.90
4697;DHT22;2362;50.780;0.292;2023-04-29T14:24:35;12.30;99.90
4697;DHT22;2362;50.780;0.292;2023-04-29T14:27:00;12.10;99.90
4697;DHT22;2362;50.780;0.292;2023-04-29T14:29:26;12.30;99.90
4697;DHT22;2362;50.780;0.292;2023-04-29T14:31:52;12.20;99.90
4697;DHT22;2362;50.780;0.292;2023-04-29T14:34:18;12.20;99.90
4697;DHT22;2362;50.780;0.292;2023-04-29T14:36:45;12.10;99.90
4697;DHT22;2362;50.780;0.292;2023-04-29T14:39:13;12.30;99.90
4697;DHT22;2362;50.780;0.292;2023-04-29T14:41:39;12.30;99.90
4697;DHT22;2362;50.780;0.292;2023-04-29T14:44:05;12.30;99.90
4697;DHT22;2362;50.780;0.292;2023-04-29T14:46:31;12.40;99.90
4697;DHT22;2362;50.780;0.292;2023-04-29T14:48:57;12.50;99.90
4697;DHT22;2362;50.780;0.292;2023-04-29T14:51:22;12.40;99.90
4697;DHT22;2362;50.780;0.292;2023-04-29T14:53:49;12.20;99.90
4697;DHT22;2362;50.780;0.292;2023-04-29T14:56:16;12.10;99.90
4697;DHT22;2362;50.780;0.292;2023-04-29T14:58:42;12.10;99.90
4697;DHT22;2362;50.780;0.292;2023-04-29T15:01:08;12.10;99.90
4697;DHT22;2362;50.780;0.292;2023-04-29T15:03:34;12.10;99.90
4697;DHT22;2362;50.780;0.292;2023-04-29T15:06:02;12.10;99.90
4697;DHT22;2362;50.780;0.292;2023-04-29T15:08:53;12.10;99.90
4697;DHT22;2362;50.780;0.292;2023-04-29T15:11:22;12.00;99.90
4697;DHT22;2362;50.780;0.292;2023-04-29T15:13:48;12.00;99.90
4697;DHT22;2362;50.780;0.292;2023-04-29T15:16:14;12.00;99.90
4697;DHT22;2362;50.780;0.292;2023-04-29T15:18:39;12.10;99.90
4697;DHT22;2362;50.780;0.292;2023-04-29T15:21:06;11.90;99.90
4697;DHT22;2362;50.780;0.292;2023-04-29T15:23:31;11.90;99.90
4697;DHT22;2362;50.780;0.292;2023-04-29T15:25:57;11.80;99.90
4697;DHT22;2362;50.780;0.292;2023-04-29T15:28:23;11.80;99.90
4697;DHT22;2362;50.780;0.292;2023-04-29T15:30:50;11.70;99.90
4697;DHT22;2362;50.780;0.292;2023-04-29T15:33:16;11.80;99.90
4697;DHT22;2362;50.780;0.292;2023-04-29T15:35:42;11.90;99.90
4697;DHT22;2362;50.780;0.292;2023-04-29T15:38:07;11.80;99.90
4697;DHT22;2362;50.780;0.292;2023-04-29T15:40:33;11.90;99.90
4697;DHT22;2362;50.780;0.292;2023-04-29T15:42:59;11.80;99.90
4697;DHT22;2362;50.780;0.292;2023-04-29T15:45:25;11.80;99.90
4697;DHT22;2362;50.780;0.292;2023-04-29T15:47:50;11.90;99.90
4697;DHT22;2362;50.780;0.292;2023-04-29T15:50:16;11.90;99.90
4697;DHT22;2362;50.780;0.292;2023-04-29T15:52:42;11.80;99.90
4697;DHT22;2362;50.780;0.292;2023-04-29T15:55:07;11.80;99.90
4697;DHT22;2362;50.780;0.292;2023-04-29T15:57:34;11.80;99.90
4697;DHT22;2362;50.780;0.292;2023-04-29T16:00:06;11.80;99.90
4697;DHT22;2362;50.780;0.292;2023-04-29T16:02:32;11.80;99.90
4697;DHT22;2362;50.780;0.292;2023-04-29T16:04:58;11.70;99.90
4697;DHT22;2362;50.780;0.292;2023-04-29T16:07:24;11.80;99.90
4697;DHT22;2362;50.780;0.292;2023-04-29T16:09:49;11.70;99.90
4697;DHT22;2362;50.780;0.292;2023-04-29T16:12:15;11.80;99.90
4697;DHT22;2362;50.780;0.292;2023-04-29T16:14:41;11.90;99.90
4697;DHT22;2362;50.780;0.292;2023-04-29T16:17:07;11.70;99.90
4697;DHT22;2362;50.780;0.292;2023-04-29T16:19:32;11.90;99.90
4697;DHT22;2362;50.780;0.292;2023-04-29T16:21:59;11.90;99.90
4697;DHT22;2362;50.780;0.292;2023-04-29T16:24:24;11.90;99.90
4697;DHT22;2362;50.780;0.292;2023-04-29T16:26:51;11.90;99.90
4697;DHT22;2362;50.780;0.292;2023-04-29T16:29:16;11.80;99.90
4697;DHT22;2362;50.780;0.292;2023-04-29T16:31:43;11.80;99.90
4697;DHT22;2362;50.780;0.292;2023-04-29T16:34:09;11.90;99.90
4697;DHT22;2362;50.780;0.292;2023-04-29T16:36:35;11.80;99.90
4697;DHT22;2362;50.780;0.292;2023-04-29T16:39:00;11.60;99.90